M/T Four Island — IBCA — position and weather

sailwx.info

Track history (hours):
 
Tides and Currents Weather Stations Pressure Air Temp Water Temp Dewpoint Dewpoint Depression Visibility Wind Speed Wind Dir Waves Ship Positions

M/T Four Island

Last reported at 2014-Jul-25 22:33 UTC. Time now 2014-Jul-25 23:09 UTC.
Position N 37°18' E 008°00'.

Length 233 m; draft 8.5 m.

Type: Ship. MMSI: 247008000.

Date/timePositionNaut miles runAvg speedWind from/ knotsBaromVisibWave heightAir tempDewpointWater temp
2014-Jul-25 22:33N 37°18' E 008°00'1312.1
2014-Jul-25 21:28N 37°21' E 007°44'2611.9
2014-Jul-25 19:18N 37°21' E 007°11'911.6
2014-Jul-25 18:33N 37°21' E 007°01'1211.5
2014-Jul-25 17:29N 37°20' E 006°45'1611.5
2014-Jul-25 16:06N 37°19' E 006°25'611.6
2014-Jul-25 15:33N 37°19' E 006°17'2812.0
2014-Jul-25 13:13N 37°17' E 005°42'3411.7
2014-Jul-25 10:18N 37°14' E 004°60'3312.0
2014-Jul-25 07:33N 37°12' E 004°18'7512.5
2014-Jul-25 01:32N 37°01' E 002°45'1412.6
2014-Jul-25 00:24N 36°58' E 002°27'1012.0
2014-Jul-24 23:33N 36°56' E 002°15'1212.2
2014-Jul-24 22:33N 36°54' E 001°60'1212.1
2014-Jul-24 21:34N 36°52' E 001°45'1312.6
2014-Jul-24 20:33N 36°50' E 001°29'1211.5
2014-Jul-24 19:33N 36°48' E 001°15'1211.6
2014-Jul-24 18:33N 36°45' E 001°01'1411.6
2014-Jul-24 17:23N 36°40' E 000°45'1011.8
2014-Jul-24 16:33N 36°37' E 000°33'1212.0
2014-Jul-24 15:33N 36°34' E 000°19'1212.0
2014-Jul-24 14:32N 36°30' E 000°05'1412.6
2014-Jul-24 13:26N 36°25' W 000°11'1112.9
2014-Jul-24 12:33N 36°22' W 000°25'1313.1
2014-Jul-24 11:34N 36°18' W 000°40'1312.9
2014-Jul-24 10:31N 36°14' W 000°56'1212.4
2014-Jul-24 09:33N 36°10' W 001°10'2611.7
2014-Jul-24 07:20N 36°02' W 001°41'2311.8
2014-Jul-24 05:22N 35°55' W 002°08'1312.2
2014-Jul-24 04:17N 35°51' W 002°23'14011.9
2014-Jul-23 16:31N 35°60' W 005°16'8 7.8
2014-Jul-23 15:28N 36°06' W 005°21'8 0.4
2014-Jul-22 16:29N 35°59' W 005°25'2712.1
2014-Jul-22 14:17N 35°54' W 005°58'912.1
2014-Jul-22 13:34N 35°53' W 006°08'1211.9
2014-Jul-22 12:33N 35°54' W 006°23'1211.6
2014-Jul-22 11:34N 35°52' W 006°37'1611.6
2014-Jul-22 10:12N 35°50' W 006°57'12 4.3
2014-Jul-22 07:25N 35°46' W 007°11'4210.9
2014-Jul-22 03:33N 35°44' W 008°03'1111.4
2014-Jul-22 02:33N 35°43' W 008°16'1111.4
2014-Jul-22 01:33N 35°42' W 008°30'1111.3
2014-Jul-22 00:32N 35°40' W 008°44'1111.2
2014-Jul-21 23:34N 35°39' W 008°58'1111.2
2014-Jul-21 22:34N 35°38' W 009°12'1111.1
2014-Jul-21 21:33N 35°37' W 009°25'1111.1
2014-Jul-21 20:33N 35°35' W 009°39'311.0
2014-Jul-21 20:18N 35°35' W 009°42'811.0
2014-Jul-21 19:33N 35°34' W 009°52'1111.2
2014-Jul-21 18:34N 35°33' W 010°06'1211.4
2014-Jul-21 17:33N 35°32' W 010°20'1111.3
2014-Jul-21 16:33N 35°30' W 010°34'1211.4
2014-Jul-21 15:32N 35°29' W 010°48'1511.4
2014-Jul-21 14:15N 35°27' W 011°06'3411.4
2014-Jul-21 11:17N 35°23' W 011°47'52811.2
2014-Jul-19 12:07N 34°60' W 022°33'1111.4
2014-Jul-19 11:10N 35°00' W 022°46'911.1
2014-Jul-19 10:20N 35°00' W 022°57'911.3
2014-Jul-19 09:34N 35°00' W 023°08'1211.6
2014-Jul-19 08:33N 34°60' W 023°22'1211.4
2014-Jul-19 07:33N 34°59' W 023°36'1111.3
2014-Jul-19 06:33N 34°59' W 023°50'1211.8
2014-Jul-19 05:33N 34°59' W 024°04'1211.5
2014-Jul-19 04:32N 34°60' W 024°18'1211.3
2014-Jul-19 03:31N 35°00' W 024°33'1111.2
2014-Jul-19 02:31N 35°00' W 024°46'1211.1
2014-Jul-19 01:27N 34°60' W 025°01'1011.2
2014-Jul-19 00:33N 34°60' W 025°13'1211.2
2014-Jul-18 23:31N 34°60' W 025°27'1511.4
2014-Jul-18 22:11N 35°00' W 025°46'811.4
2014-Jul-18 21:30N 35°00' W 025°55'1211.6
2014-Jul-18 20:25N 34°60' W 026°10'1011.3
2014-Jul-18 19:32N 35°00' W 026°23'1511.2
2014-Jul-18 18:12N 35°00' W 026°41'1211.1
2014-Jul-18 17:05N 34°60' W 026°56'611.0
2014-Jul-18 16:30N 34°60' W 027°04'1111.2
2014-Jul-18 15:33N 34°60' W 027°17'1111.3
2014-Jul-18 14:33N 34°60' W 027°31'1211.4
2014-Jul-18 13:29N 35°00' W 027°46'1111.6
2014-Jul-18 12:31N 35°00' W 027°59'  
Track history (hours):
 
Tides and Currents Weather Stations Pressure Air Temp Water Temp Dewpoint Dewpoint Depression Visibility Wind Speed Wind Dir Waves Ship Positions

M/T Four Island

Last reported at 2014-Jul-25 22:33 UTC. Time now 2014-Jul-25 23:09 UTC.
Position N 37°18' E 008°00'.

Length 233 m; draft 8.5 m.

Type: Ship. MMSI: 247008000.

Date/timePositionNaut miles runAvg speedWind from/ knotsBaromVisibWave heightAir tempDewpointWater temp
2014-Jul-25 22:33N 37°18' E 008°00'1312.1
2014-Jul-25 21:28N 37°21' E 007°44'2611.9
2014-Jul-25 19:18N 37°21' E 007°11'911.6
2014-Jul-25 18:33N 37°21' E 007°01'1211.5
2014-Jul-25 17:29N 37°20' E 006°45'1611.5
2014-Jul-25 16:06N 37°19' E 006°25'611.6
2014-Jul-25 15:33N 37°19' E 006°17'2812.0
2014-Jul-25 13:13N 37°17' E 005°42'3411.7
2014-Jul-25 10:18N 37°14' E 004°60'3312.0
2014-Jul-25 07:33N 37°12' E 004°18'7512.5
2014-Jul-25 01:32N 37°01' E 002°45'1412.6
2014-Jul-25 00:24N 36°58' E 002°27'1012.0
2014-Jul-24 23:33N 36°56' E 002°15'1212.2
2014-Jul-24 22:33N 36°54' E 001°60'1212.1
2014-Jul-24 21:34N 36°52' E 001°45'1312.6
2014-Jul-24 20:33N 36°50' E 001°29'1211.5
2014-Jul-24 19:33N 36°48' E 001°15'1211.6
2014-Jul-24 18:33N 36°45' E 001°01'1411.6
2014-Jul-24 17:23N 36°40' E 000°45'1011.8
2014-Jul-24 16:33N 36°37' E 000°33'1212.0
2014-Jul-24 15:33N 36°34' E 000°19'1212.0
2014-Jul-24 14:32N 36°30' E 000°05'1412.6
2014-Jul-24 13:26N 36°25' W 000°11'1112.9
2014-Jul-24 12:33N 36°22' W 000°25'1313.1
2014-Jul-24 11:34N 36°18' W 000°40'1312.9
2014-Jul-24 10:31N 36°14' W 000°56'1212.4
2014-Jul-24 09:33N 36°10' W 001°10'2611.7
2014-Jul-24 07:20N 36°02' W 001°41'2311.8
2014-Jul-24 05:22N 35°55' W 002°08'1312.2
2014-Jul-24 04:17N 35°51' W 002°23'14011.9
2014-Jul-23 16:31N 35°60' W 005°16'8 7.8
2014-Jul-23 15:28N 36°06' W 005°21'8 0.4
2014-Jul-22 16:29N 35°59' W 005°25'2712.1
2014-Jul-22 14:17N 35°54' W 005°58'912.1
2014-Jul-22 13:34N 35°53' W 006°08'1211.9
2014-Jul-22 12:33N 35°54' W 006°23'1211.6
2014-Jul-22 11:34N 35°52' W 006°37'1611.6
2014-Jul-22 10:12N 35°50' W 006°57'12 4.3
2014-Jul-22 07:25N 35°46' W 007°11'4210.9
2014-Jul-22 03:33N 35°44' W 008°03'1111.4
2014-Jul-22 02:33N 35°43' W 008°16'1111.4
2014-Jul-22 01:33N 35°42' W 008°30'1111.3
2014-Jul-22 00:32N 35°40' W 008°44'1111.2
2014-Jul-21 23:34N 35°39' W 008°58'1111.2
2014-Jul-21 22:34N 35°38' W 009°12'1111.1
2014-Jul-21 21:33N 35°37' W 009°25'1111.1
2014-Jul-21 20:33N 35°35' W 009°39'311.0
2014-Jul-21 20:18N 35°35' W 009°42'811.0
2014-Jul-21 19:33N 35°34' W 009°52'1111.2
2014-Jul-21 18:34N 35°33' W 010°06'1211.4
2014-Jul-21 17:33N 35°32' W 010°20'1111.3
2014-Jul-21 16:33N 35°30' W 010°34'1211.4
2014-Jul-21 15:32N 35°29' W 010°48'1511.4
2014-Jul-21 14:15N 35°27' W 011°06'3411.4
2014-Jul-21 11:17N 35°23' W 011°47'52811.2
2014-Jul-19 12:07N 34°60' W 022°33'1111.4
2014-Jul-19 11:10N 35°00' W 022°46'911.1
2014-Jul-19 10:20N 35°00' W 022°57'911.3
2014-Jul-19 09:34N 35°00' W 023°08'1211.6
2014-Jul-19 08:33N 34°60' W 023°22'1211.4
2014-Jul-19 07:33N 34°59' W 023°36'1111.3
2014-Jul-19 06:33N 34°59' W 023°50'1211.8
2014-Jul-19 05:33N 34°59' W 024°04'1211.5
2014-Jul-19 04:32N 34°60' W 024°18'1211.3
2014-Jul-19 03:31N 35°00' W 024°33'1111.2
2014-Jul-19 02:31N 35°00' W 024°46'1211.1
2014-Jul-19 01:27N 34°60' W 025°01'1011.2
2014-Jul-19 00:33N 34°60' W 025°13'1211.2
2014-Jul-18 23:31N 34°60' W 025°27'1511.4
2014-Jul-18 22:11N 35°00' W 025°46'811.4
2014-Jul-18 21:30N 35°00' W 025°55'1211.6
2014-Jul-18 20:25N 34°60' W 026°10'1011.3
2014-Jul-18 19:32N 35°00' W 026°23'1511.2
2014-Jul-18 18:12N 35°00' W 026°41'1211.1
2014-Jul-18 17:05N 34°60' W 026°56'611.0
2014-Jul-18 16:30N 34°60' W 027°04'1111.2
2014-Jul-18 15:33N 34°60' W 027°17'1111.3
2014-Jul-18 14:33N 34°60' W 027°31'1211.4
2014-Jul-18 13:29N 35°00' W 027°46'1111.6
2014-Jul-18 12:31N 35°00' W 027°59'  

Dump ship's entire track history